createdAt,value
2023-04-01T00:00:03.109Z,13.25
2023-04-01T00:02:30.054Z,13.64
2023-04-01T00:04:57.360Z,13.29
2023-04-01T00:07:24.259Z,13.59
2023-04-01T00:09:51.931Z,12.40
2023-04-01T00:12:18.806Z,12.43
2023-04-01T00:14:46.109Z,12.55
2023-04-01T00:17:13.136Z,12.50
2023-04-01T00:19:40.407Z,12.86
2023-04-01T00:22:07.419Z,12.28
2023-04-01T00:24:34.429Z,12.80
2023-04-01T00:27:01.376Z,12.44
2023-04-01T00:29:30.450Z,12.62
2023-04-01T00:31:59.896Z,12.60
2023-04-01T00:34:27.412Z,12.66
2023-04-01T00:36:55.261Z,12.88
2023-04-01T00:39:22.806Z,13.03
2023-04-01T00:41:50.456Z,13.16
2023-04-01T00:44:28.483Z,13.19
2023-04-01T00:46:55.785Z,13.06
2023-04-01T00:49:30.995Z,13.06
2023-04-01T00:52:01.316Z,13.25
2023-04-01T00:54:31.172Z,13.10
2023-04-01T00:57:03.540Z,13.16
2023-04-01T00:59:38.397Z,13.06
2023-04-01T01:02:08.448Z,13.17
2023-04-01T01:04:36.940Z,13.03
2023-04-01T01:07:06.881Z,13.25
2023-04-01T01:09:55.642Z,13.11
2023-04-01T01:12:27.112Z,12.56
2023-04-01T01:14:53.948Z,12.76
2023-04-01T01:17:28.295Z,13.27
2023-04-01T01:20:07.717Z,12.76
2023-04-01T01:23:06.539Z,12.62
2023-04-01T01:25:49.452Z,12.55
2023-04-01T01:28:37.757Z,12.86
2023-04-01T01:31:38.131Z,12.66
2023-04-01T01:34:14.183Z,12.78
2023-04-01T01:36:46.295Z,12.99
2023-04-01T01:39:15.107Z,12.78
2023-04-01T01:41:46.262Z,12.94
2023-04-01T01:44:16.517Z,12.49
2023-04-01T01:46:46.003Z,12.75
2023-04-01T01:49:14.913Z,12.62
2023-04-01T01:51:44.285Z,11.86
2023-04-01T01:54:15.744Z,11.70
2023-04-01T01:56:46.380Z,12.27
2023-04-01T01:59:15.791Z,12.53
2023-04-01T02:01:47.878Z,12.04
2023-04-01T02:04:16.828Z,12.09
2023-04-01T02:06:53.673Z,11.93
2023-04-01T02:09:21.644Z,11.97
2023-04-01T02:12:05.217Z,10.95
2023-04-01T02:14:51.208Z,11.34
2023-04-01T02:17:21.724Z,11.60
2023-04-01T02:19:57.142Z,11.84
2023-04-01T02:22:33.420Z,11.47
2023-04-01T02:25:05.928Z,11.41
2023-04-01T02:27:33.270Z,11.62
2023-04-01T02:30:00.481Z,11.56
2023-04-01T02:32:30.899Z,11.96
2023-04-01T02:34:58.321Z,12.19
2023-04-01T02:37:25.299Z,12.30
2023-04-01T02:39:52.243Z,12.23
2023-04-01T02:42:19.206Z,11.98
2023-04-01T02:44:46.290Z,12.19
2023-04-01T02:47:13.280Z,11.72
2023-04-01T02:49:40.241Z,11.52
2023-04-01T02:52:07.172Z,11.40
2023-04-01T02:54:34.064Z,12.07
2023-04-01T02:57:01.004Z,12.38
2023-04-01T02:59:27.908Z,12.50
2023-04-01T03:01:54.897Z,12.64
2023-04-01T03:04:21.954Z,12.60
2023-04-01T03:06:48.773Z,12.67
2023-04-01T03:09:15.733Z,12.65
2023-04-01T03:11:42.804Z,12.56
2023-04-01T03:14:09.755Z,12.24
2023-04-01T03:16:36.699Z,12.57
2023-04-01T03:19:03.645Z,12.54
2023-04-01T03:21:30.770Z,12.50
2023-04-01T03:23:57.872Z,12.65
2023-04-01T03:26:24.728Z,12.62
2023-04-01T03:28:51.652Z,12.63
2023-04-01T03:31:18.742Z,12.76
2023-04-01T03:33:46.267Z,12.53
2023-04-01T03:36:14.006Z,12.66
2023-04-01T03:38:45.215Z,12.82
2023-04-01T03:41:16.937Z,12.76
2023-04-01T03:43:43.935Z,12.68
2023-04-01T03:46:11.077Z,12.60
2023-04-01T03:48:38.141Z,12.77
2023-04-01T03:51:09.118Z,12.65
2023-04-01T03:53:36.100Z,12.40
2023-04-01T03:56:07.447Z,12.60
2023-04-01T03:58:34.616Z,12.62
2023-04-01T04:01:01.641Z,12.51
2023-04-01T04:03:29.471Z,12.42
2023-04-01T04:05:57.559Z,12.49
2023-04-01T04:08:24.516Z,12.49
2023-04-01T04:10:57.070Z,12.45
2023-04-01T04:13:23.959Z,12.33
2023-04-01T04:15:51.039Z,12.31
2023-04-01T04:18:17.960Z,12.43
2023-04-01T04:20:48.377Z,11.73
2023-04-01T04:23:15.596Z,12.13
2023-04-01T04:25:42.691Z,12.20
2023-04-01T04:28:09.640Z,11.92
2023-04-01T04:30:36.612Z,11.69
2023-04-01T04:33:03.544Z,11.83
2023-04-01T04:35:30.950Z,12.03
2023-04-01T04:37:58.133Z,11.18
2023-04-01T04:40:25.129Z,11.31
2023-04-01T04:42:52.053Z,10.99
2023-04-01T04:45:19.004Z,11.14
2023-04-01T04:47:46.000Z,11.17
2023-04-01T04:50:12.991Z,11.15
2023-04-01T04:52:39.904Z,11.34
2023-04-01T04:55:07.255Z,11.51
2023-04-01T04:57:34.198Z,11.68
2023-04-01T05:00:01.217Z,11.63
2023-04-01T05:02:28.298Z,11.54
2023-04-01T05:04:55.863Z,11.40
2023-04-01T05:07:22.741Z,11.40
2023-04-01T05:09:49.718Z,11.54
2023-04-01T05:12:16.813Z,11.61
2023-04-01T05:14:43.791Z,11.66
2023-04-01T05:17:13.543Z,11.87
2023-04-01T05:19:40.782Z,11.99
2023-04-01T05:22:07.890Z,12.17
2023-04-01T05:24:34.985Z,12.17
2023-04-01T05:27:02.259Z,12.27
2023-04-01T05:29:29.190Z,11.97
2023-04-01T05:31:56.119Z,12.07
2023-04-01T05:34:23.071Z,12.01
2023-04-01T05:36:50.030Z,11.85
2023-04-01T05:39:16.995Z,11.52
2023-04-01T05:41:43.961Z,11.35
2023-04-01T05:44:13.819Z,11.16
2023-04-01T05:46:40.669Z,11.52
2023-04-01T05:49:07.891Z,11.53
2023-04-01T05:51:34.838Z,11.03
2023-04-01T05:54:01.786Z,11.43
2023-04-01T05:56:28.625Z,11.43
2023-04-01T05:58:55.752Z,11.39
2023-04-01T06:01:22.931Z,11.50
2023-04-01T06:03:50.037Z,10.71
2023-04-01T06:06:29.744Z,10.65
2023-04-01T06:08:59.960Z,10.57
2023-04-01T06:12:08.185Z,10.75
2023-04-01T06:14:57.161Z,11.05
2023-04-01T06:17:49.259Z,11.30
2023-04-01T06:20:36.519Z,11.58
2023-04-01T06:23:15.960Z,11.54
2023-04-01T06:26:10.660Z,11.01
2023-04-01T06:28:56.232Z,11.65
2023-04-01T06:32:00.084Z,11.72
2023-04-01T06:34:36.015Z,12.10
2023-04-01T06:37:40.478Z,11.74
2023-04-01T06:40:26.016Z,11.69
2023-04-01T06:43:04.402Z,12.07
2023-04-01T06:45:37.380Z,11.75
2023-04-01T06:48:07.359Z,11.98
2023-04-01T06:50:53.864Z,12.32
2023-04-01T06:53:47.079Z,11.67
2023-04-01T06:56:22.016Z,12.47
2023-04-01T06:59:03.548Z,12.11
2023-04-01T07:01:37.029Z,11.90
2023-04-01T07:04:12.635Z,12.64
2023-04-01T07:07:01.622Z,13.17
2023-04-01T07:09:56.834Z,12.91
2023-04-01T07:12:33.506Z,13.15
2023-04-01T07:15:05.141Z,13.18
2023-04-01T07:17:36.764Z,13.32
2023-04-01T07:20:22.220Z,13.68
2023-04-01T07:22:52.742Z,13.43
2023-04-01T07:25:19.670Z,13.50
2023-04-01T07:27:47.634Z,13.80
2023-04-01T07:30:19.384Z,14.21
2023-04-01T07:33:00.764Z,14.49
2023-04-01T07:35:32.341Z,14.76
2023-04-01T07:38:19.348Z,15.08
2023-04-01T07:40:57.320Z,15.41
2023-04-01T07:43:44.753Z,15.52
2023-04-01T07:46:31.899Z,15.90
2023-04-01T07:49:01.715Z,16.16
2023-04-01T07:51:43.726Z,16.32
2023-04-01T07:54:25.803Z,16.37
2023-04-01T07:56:52.705Z,16.96
2023-04-01T07:59:44.199Z,17.01
2023-04-01T08:02:40.925Z,16.75
2023-04-01T08:05:07.839Z,16.76
2023-04-01T08:07:51.660Z,17.33
2023-04-01T08:10:53.663Z,17.29
2023-04-01T08:13:50.501Z,17.10
2023-04-01T08:16:26.443Z,17.52
2023-04-01T08:19:11.502Z,17.36
2023-04-01T08:21:52.382Z,17.28
2023-04-01T08:24:44.450Z,17.61
2023-04-01T08:27:24.888Z,17.65
2023-04-01T08:30:02.171Z,17.19
2023-04-01T08:32:38.424Z,17.89
2023-04-01T08:35:19.425Z,17.48
2023-04-01T08:37:47.017Z,17.46
2023-04-01T08:40:32.379Z,17.79
2023-04-01T08:42:59.375Z,18.29
2023-04-01T08:45:32.566Z,18.80
2023-04-01T08:48:26.124Z,19.26
2023-04-01T08:50:52.981Z,19.82
2023-04-01T08:53:31.735Z,19.96
2023-04-01T08:56:19.451Z,20.26
2023-04-01T08:59:24.603Z,20.07
2023-04-01T09:02:16.998Z,20.40
2023-04-01T09:05:17.681Z,20.69
2023-04-01T09:07:52.943Z,20.51
2023-04-01T09:10:28.889Z,20.85
2023-04-01T09:13:42.868Z,21.26
2023-04-01T09:16:18.244Z,20.54
2023-04-01T09:19:18.318Z,20.76
2023-04-01T09:22:07.177Z,19.82
2023-04-01T09:25:11.764Z,18.76
2023-04-01T09:27:58.979Z,19.10
2023-04-01T09:30:43.948Z,19.43
2023-04-01T09:33:40.002Z,19.73
2023-04-01T09:36:18.729Z,20.09
2023-04-01T09:39:24.036Z,19.69
2023-04-01T09:42:04.510Z,19.99
2023-04-01T09:44:52.114Z,20.32
2023-04-01T09:47:47.115Z,19.76
2023-04-01T09:50:34.297Z,19.93
2023-04-01T09:53:28.909Z,19.58
2023-04-01T09:56:14.134Z,19.81
2023-04-01T09:58:55.975Z,20.54
2023-04-01T10:01:58.913Z,20.26
2023-04-01T10:04:25.745Z,20.46
2023-04-01T10:07:40.642Z,20.99
2023-04-01T10:10:48.058Z,21.05
2023-04-01T10:13:18.025Z,21.06
2023-04-01T10:16:15.610Z,21.20
2023-04-01T10:19:12.965Z,21.37
2023-04-01T10:22:03.544Z,21.28
2023-04-01T10:25:07.187Z,21.41
2023-04-01T10:28:11.842Z,22.03
2023-04-01T10:31:23.644Z,21.75
2023-04-01T10:34:21.184Z,21.86
2023-04-01T10:36:55.235Z,22.29
2023-04-01T10:39:40.620Z,22.60
2023-04-01T10:42:24.777Z,22.48
2023-04-01T10:45:26.153Z,22.58
2023-04-01T10:48:18.680Z,21.93
2023-04-01T10:51:12.324Z,21.62
2023-04-01T10:53:59.677Z,21.55
2023-04-01T10:56:41.557Z,21.52
2023-04-01T10:59:14.490Z,21.53
2023-04-01T11:02:11.228Z,21.42
2023-04-01T11:05:08.906Z,21.47
2023-04-01T11:08:06.433Z,21.17
2023-04-01T11:11:19.779Z,21.33
2023-04-01T11:14:08.801Z,21.16
2023-04-01T11:16:57.212Z,21.34
2023-04-01T11:19:51.781Z,20.84
2023-04-01T11:22:53.073Z,20.82
2023-04-01T11:25:37.409Z,20.87
2023-04-01T11:28:24.783Z,20.97
2023-04-01T11:31:20.645Z,21.32
2023-04-01T11:33:59.094Z,21.28
2023-04-01T11:36:37.974Z,21.62
2023-04-01T11:39:22.958Z,21.58
2023-04-01T11:42:21.056Z,21.75
2023-04-01T11:45:02.123Z,21.71
2023-04-01T11:48:13.481Z,21.66
2023-04-01T11:51:09.161Z,21.21
2023-04-01T11:53:36.028Z,21.05
2023-04-01T11:56:09.187Z,21.03
2023-04-01T11:58:36.128Z,20.19
2023-04-01T12:01:34.490Z,20.34
2023-04-01T12:04:23.337Z,20.11
2023-04-01T12:06:56.490Z,20.28
2023-04-01T12:09:26.349Z,19.76
2023-04-01T12:12:12.254Z,18.96
2023-04-01T12:15:24.512Z,19.40
2023-04-01T12:17:57.453Z,18.89
2023-04-01T12:20:39.597Z,18.87
2023-04-01T12:23:20.778Z,18.79
2023-04-01T12:25:59.633Z,18.42
2023-04-01T12:29:08.583Z,18.30
2023-04-01T12:31:52.736Z,18.69
2023-04-01T12:34:32.256Z,17.79
2023-04-01T12:37:19.239Z,18.12
2023-04-01T12:39:53.140Z,18.79
2023-04-01T12:42:53.693Z,18.48
2023-04-01T12:45:31.795Z,17.76
2023-04-01T12:48:40.293Z,17.96
2023-04-01T12:51:28.141Z,18.82
2023-04-01T12:54:13.228Z,17.77
2023-04-01T12:56:40.084Z,18.69
2023-04-01T12:59:31.991Z,18.51
2023-04-01T13:02:29.719Z,18.23
2023-04-01T13:05:23.180Z,18.54
2023-04-01T13:08:03.574Z,18.11
2023-04-01T13:10:33.771Z,18.69
2023-04-01T13:13:41.101Z,19.05
2023-04-01T13:16:23.233Z,19.08
2023-04-01T13:19:14.626Z,19.24
2023-04-01T13:22:09.092Z,19.46
2023-04-01T13:24:42.596Z,18.79
2023-04-01T13:27:47.363Z,19.16
2023-04-01T13:30:46.275Z,19.40
2023-04-01T13:33:39.688Z,19.41
2023-04-01T13:36:19.527Z,19.19
2023-04-01T13:38:56.641Z,19.21
2023-04-01T13:41:39.472Z,18.77
2023-04-01T13:44:24.357Z,19.00
2023-04-01T13:47:09.399Z,18.47
2023-04-01T13:50:11.421Z,17.96
2023-04-01T13:52:47.272Z,18.45
2023-04-01T13:55:33.127Z,18.47
2023-04-01T13:58:15.294Z,18.28
2023-04-01T14:01:06.894Z,18.02
2023-04-01T14:04:06.128Z,18.25
2023-04-01T14:06:50.697Z,18.33
2023-04-01T14:09:53.062Z,17.58
2023-04-01T14:12:30.148Z,16.67
2023-04-01T14:15:24.838Z,16.31
2023-04-01T14:17:54.641Z,15.73
2023-04-01T14:20:24.537Z,16.10
2023-04-01T14:23:16.398Z,16.43
2023-04-01T14:25:43.325Z,16.73
2023-04-01T14:28:16.247Z,17.23
2023-04-01T14:31:01.783Z,18.35
2023-04-01T14:33:48.318Z,19.36
2023-04-01T14:36:43.181Z,19.89
2023-04-01T14:39:31.550Z,20.72
2023-04-01T14:42:22.408Z,21.06
2023-04-01T14:44:56.707Z,21.37
2023-04-01T14:48:01.913Z,21.55
2023-04-01T14:50:41.424Z,22.02
2023-04-01T14:53:08.395Z,22.51
2023-04-01T14:55:44.504Z,22.44
2023-04-01T14:58:15.741Z,22.70
2023-04-01T15:00:53.577Z,22.63
2023-04-01T15:03:28.320Z,23.06
2023-04-01T15:06:13.454Z,22.98
2023-04-01T15:08:59.132Z,23.07
2023-04-01T15:11:35.009Z,23.14
2023-04-01T15:14:30.607Z,23.11
2023-04-01T15:17:08.522Z,23.08
2023-04-01T15:19:57.393Z,23.08
2023-04-01T15:22:32.085Z,23.05
2023-04-01T15:25:27.235Z,22.61
2023-04-01T15:27:57.130Z,22.70
2023-04-01T15:30:37.036Z,22.51
2023-04-01T15:33:13.225Z,22.31
2023-04-01T15:36:07.792Z,22.19
2023-04-01T15:38:39.952Z,21.90
2023-04-01T15:41:27.173Z,21.82
2023-04-01T15:43:54.135Z,21.79
2023-04-01T15:46:33.010Z,21.49
2023-04-01T15:49:32.808Z,21.26
2023-04-01T15:52:26.304Z,21.29
2023-04-01T15:55:13.559Z,20.99
2023-04-01T15:57:47.241Z,20.84
2023-04-01T16:00:58.417Z,20.67
2023-04-01T16:03:34.450Z,20.55
2023-04-01T16:06:01.382Z,20.48
2023-04-01T16:08:47.449Z,20.34
2023-04-01T16:11:53.119Z,20.28
2023-04-01T16:14:40.239Z,20.08
2023-04-01T16:17:28.719Z,19.84
2023-04-01T16:20:11.315Z,19.73
2023-04-01T16:22:51.670Z,19.44
2023-04-01T16:25:43.083Z,19.08
2023-04-01T16:28:35.601Z,19.06
2023-04-01T16:31:14.462Z,18.87
2023-04-01T16:34:09.287Z,18.77
2023-04-01T16:36:55.598Z,18.77
2023-04-01T16:39:58.440Z,18.60
2023-04-01T16:42:47.811Z,18.73
2023-04-01T16:45:30.097Z,18.46
2023-04-01T16:48:07.422Z,18.36
2023-04-01T16:51:00.676Z,18.20
2023-04-01T16:53:49.613Z,18.20
2023-04-01T16:56:31.516Z,18.20
2023-04-01T16:59:07.887Z,18.04
2023-04-01T17:01:44.769Z,17.99
2023-04-01T17:04:27.144Z,17.91
2023-04-01T17:07:03.670Z,17.84
2023-04-01T17:10:16.536Z,17.91
2023-04-01T17:13:02.143Z,17.82
2023-04-01T17:15:41.185Z,17.69
2023-04-01T17:18:26.533Z,17.55
2023-04-01T17:21:01.289Z,17.59
2023-04-01T17:23:45.105Z,17.61
2023-04-01T17:26:30.856Z,17.06
2023-04-01T17:29:16.186Z,16.95
2023-04-01T17:32:10.942Z,16.90
2023-04-01T17:35:02.428Z,16.97
2023-04-01T17:37:56.322Z,16.91
2023-04-01T17:40:30.928Z,16.96
2023-04-01T17:43:30.259Z,17.18
2023-04-01T17:46:02.410Z,14.86
2023-04-01T17:48:58.711Z,16.02
2023-04-01T17:51:57.812Z,16.14
2023-04-01T17:54:57.135Z,16.22
2023-04-01T17:57:46.054Z,14.53
2023-04-01T18:00:27.131Z,14.42
2023-04-01T18:03:31.535Z,15.34
2023-04-01T18:06:41.104Z,15.80
2023-04-01T18:09:36.954Z,15.28
2023-04-01T18:12:32.916Z,15.63
2023-04-01T18:17:45.208Z,15.74
2023-04-01T18:20:24.276Z,15.77
2023-04-01T18:23:09.817Z,15.93
2023-04-01T18:25:42.138Z,16.11
2023-04-01T18:28:39.939Z,15.78
2023-04-01T18:31:23.213Z,15.87
2023-04-01T18:33:50.662Z,15.88
2023-04-01T18:36:42.619Z,16.00
2023-04-01T18:39:17.216Z,16.18
2023-04-01T18:42:04.417Z,15.12
2023-04-01T18:44:47.163Z,14.93
2023-04-01T18:47:32.448Z,15.61
2023-04-01T18:50:21.551Z,15.29
2023-04-01T18:52:59.983Z,15.51
2023-04-01T18:55:30.029Z,15.62
2023-04-01T18:58:27.574Z,15.06
2023-04-01T19:01:40.775Z,14.66
2023-04-01T19:04:35.079Z,14.74
2023-04-01T19:07:23.502Z,14.93
2023-04-01T19:09:51.969Z,13.48
2023-04-01T19:12:35.877Z,14.26
2023-04-01T19:15:36.964Z,13.77
2023-04-01T19:18:27.500Z,14.61
2023-04-01T19:20:58.641Z,14.73
2023-04-01T19:23:44.122Z,14.90
2023-04-01T19:26:32.654Z,15.06
2023-04-01T19:29:28.685Z,15.21
2023-04-01T19:32:34.223Z,15.08
2023-04-01T19:35:18.959Z,15.20
2023-04-01T19:38:13.685Z,15.06
2023-04-01T19:41:07.912Z,15.04
2023-04-01T19:44:24.601Z,14.94
2023-04-01T19:46:56.093Z,14.99
2023-04-01T19:49:34.323Z,15.04
2023-04-01T19:52:05.084Z,15.06
2023-04-01T19:54:41.349Z,15.30
2023-04-01T19:57:18.283Z,15.18
2023-04-01T20:00:05.213Z,14.98
2023-04-01T20:02:38.210Z,15.12
2023-04-01T20:05:27.085Z,15.33
2023-04-01T20:08:01.396Z,15.19
2023-04-01T20:10:43.906Z,15.23
2023-04-01T20:13:23.023Z,15.19
2023-04-01T20:16:02.852Z,15.12
2023-04-01T20:18:39.719Z,14.99
2023-04-01T20:21:26.196Z,15.17
2023-04-01T20:24:03.563Z,15.11
2023-04-01T20:26:35.575Z,15.18
2023-04-01T20:29:20.330Z,15.17
2023-04-01T20:32:14.790Z,14.37
2023-04-01T20:35:13.852Z,14.84
2023-04-01T20:37:58.335Z,14.67
2023-04-01T20:40:32.992Z,14.80
2023-04-01T20:43:14.811Z,14.64
2023-04-01T20:45:47.796Z,14.51
2023-04-01T20:48:28.499Z,14.63
2023-04-01T20:51:00.729Z,14.64
2023-04-01T20:53:38.477Z,14.54
2023-04-01T20:56:17.623Z,14.39
2023-04-01T20:59:02.836Z,14.49
2023-04-01T21:01:48.388Z,14.15
2023-04-01T21:04:34.207Z,14.27
2023-04-01T21:07:38.766Z,14.22
2023-04-01T21:10:20.032Z,14.22
2023-04-01T21:12:56.809Z,14.34
2023-04-01T21:16:01.645Z,14.17
2023-04-01T21:18:46.768Z,14.33
2023-04-01T21:22:01.416Z,14.42
2023-04-01T21:24:50.042Z,14.48
2023-04-01T21:27:25.934Z,14.27
2023-04-01T21:30:11.200Z,14.32
2023-04-01T21:32:37.990Z,14.49
2023-04-01T21:35:31.554Z,14.50
2023-04-01T21:38:15.339Z,14.43
2023-04-01T21:41:00.414Z,14.46
2023-04-01T21:43:58.327Z,14.32
2023-04-01T21:46:47.775Z,13.56
2023-04-01T21:49:25.908Z,13.61
2023-04-01T21:52:29.846Z,14.07
2023-04-01T21:55:21.341Z,14.20
2023-04-01T21:58:11.174Z,14.13
2023-04-01T22:00:59.463Z,14.24
2023-04-01T22:03:32.380Z,14.56
2023-04-01T22:06:53.507Z,14.36
2023-04-01T22:09:42.531Z,14.24
2023-04-01T22:12:33.202Z,14.17
2023-04-01T22:15:21.778Z,14.51
2023-04-01T22:18:15.168Z,14.38
2023-04-01T22:21:06.405Z,14.42
2023-04-01T22:23:46.591Z,13.09
2023-04-01T22:26:44.508Z,13.63
2023-04-01T22:29:31.126Z,12.96
2023-04-01T22:32:20.916Z,13.46
2023-04-01T22:34:53.718Z,13.65
2023-04-01T22:37:33.361Z,13.61
2023-04-01T22:40:24.643Z,12.93
2023-04-01T22:43:02.643Z,13.71
2023-04-01T22:45:51.036Z,13.58
2023-04-01T22:48:39.643Z,13.77
2023-04-01T22:51:19.199Z,14.03
2023-04-01T22:54:07.836Z,13.92
2023-04-01T22:56:41.573Z,14.00
2023-04-01T22:59:37.790Z,13.91
2023-04-01T23:02:26.944Z,14.22
2023-04-01T23:04:59.355Z,13.84
2023-04-01T23:07:47.723Z,13.91
2023-04-01T23:10:45.853Z,14.05
2023-04-01T23:13:22.201Z,14.06
2023-04-01T23:15:49.405Z,14.02
2023-04-01T23:18:37.483Z,14.09
2023-04-01T23:21:17.623Z,13.37
2023-04-01T23:23:51.412Z,13.82
2023-04-01T23:26:34.184Z,13.49
2023-04-01T23:29:01.710Z,13.37
2023-04-01T23:31:30.244Z,13.73
2023-04-01T23:34:07.016Z,13.66
2023-04-01T23:36:40.566Z,13.73
2023-04-01T23:39:25.217Z,13.66
2023-04-01T23:41:56.215Z,13.90
2023-04-01T23:44:26.850Z,13.93
2023-04-01T23:46:55.575Z,14.01
2023-04-01T23:49:26.805Z,14.03
2023-04-01T23:51:58.204Z,14.09
2023-04-01T23:55:16.487Z,14.16
2023-04-01T23:57:43.480Z,14.01
